Time;durP1;ratioP1;P1;durP2;ratioP2;P2;SDS_P1;SDS_P2;PMS_P1;PMS_P2;Temp;Humidity;BMP_temperature;BMP_pressure;BME280_temperature;BME280_humidity;BME280_pressure;Samples;Min_cycle;Max_cycle;Signal;HPM_P1;HPM_P2
2023/03/22 00:04:26;;;;;;;;;;;16.80;67.40;;;;;;10166654;28;93629;-72
2023/03/22 00:09:28;;;;;;;;;;;16.80;67.40;;;;;;10168601;28;94221;-71
2023/03/22 00:14:30;;;;;;;;;;;16.70;67.40;;;;;;10168412;28;94522;-71
2023/03/22 00:19:32;;;;;;;;;;;16.70;67.30;;;;;;10150910;28;97353;-71
2023/03/22 00:24:34;;;;;;;;;;;16.70;67.30;;;;;;10165018;28;97622;-71
2023/03/22 00:29:36;;;;;;;;;;;16.70;67.40;;;;;;10169084;28;93428;-72
2023/03/22 00:34:38;;;;;;;;;;;16.70;67.30;;;;;;10167716;28;94350;-71
2023/03/22 00:39:39;;;;;;;;;;;16.70;67.40;;;;;;10166504;28;93529;-72
2023/03/22 00:44:41;;;;;;;;;;;16.70;67.30;;;;;;10166843;28;93603;-71
2023/03/22 00:49:43;;;;;;;;;;;16.70;67.30;;;;;;10166153;28;94301;-71
2023/03/22 00:54:45;;;;;;;;;;;16.60;67.30;;;;;;10166925;28;94732;-71
2023/03/22 00:59:47;;;;;;;;;;;16.60;67.30;;;;;;10166831;28;93059;-71
2023/03/22 01:04:49;;;;;;;;;;;16.60;67.30;;;;;;10167306;28;95511;-72
2023/03/22 01:09:51;;;;;;;;;;;16.60;67.20;;;;;;10149422;28;93487;-71
2023/03/22 01:14:52;;;;;;;;;;;16.60;67.20;;;;;;10163750;28;95383;-71
2023/03/22 01:19:54;;;;;;;;;;;16.60;67.10;;;;;;10172854;28;93058;-71
2023/03/22 01:24:56;;;;;;;;;;;16.60;67.00;;;;;;10174332;28;97167;-72
2023/03/22 01:29:57;;;;;;;;;;;16.60;66.90;;;;;;10155611;28;94794;-71
2023/03/22 01:34:59;;;;;;;;;;;16.60;66.90;;;;;;10172828;28;93187;-72
2023/03/22 01:40:02;;;;;;;;;;;16.60;66.90;;;;;;10172808;28;97229;-72
2023/03/22 01:45:12;;;;;;;;;;;16.60;66.90;;;;;;10173298;28;94505;-71
2023/03/22 01:50:15;;;;;;;;;;;16.60;66.70;;;;;;10172526;28;93690;-71
2023/03/22 01:55:21;;;;;;;;;;;16.60;66.80;;;;;;10171808;28;94381;-71
2023/03/22 02:00:23;;;;;;;;;;;16.60;66.80;;;;;;10171068;28;93593;-71
2023/03/22 02:05:25;;;;;;;;;;;16.60;66.70;;;;;;10168643;28;96045;-71
2023/03/22 02:10:27;;;;;;;;;;;16.60;66.70;;;;;;10171526;28;92952;-72
2023/03/22 02:15:32;;;;;;;;;;;16.60;66.70;;;;;;10171333;28;93483;-72
2023/03/22 02:20:38;;;;;;;;;;;16.50;66.50;;;;;;10153695;28;94669;-71
2023/03/22 02:25:59;;;;;;;;;;;16.50;66.50;;;;;;10170800;28;93487;-72
2023/03/22 02:31:06;;;;;;;;;;;16.50;66.50;;;;;;10169184;28;93398;-72
2023/03/22 02:36:20;;;;;;;;;;;16.50;66.60;;;;;;10171035;28;93722;-71
2023/03/22 02:41:40;;;;;;;;;;;16.50;66.50;;;;;;10153957;28;92733;-71
2023/03/22 02:46:45;;;;;;;;;;;16.50;66.50;;;;;;10170177;28;93465;-71
2023/03/22 02:51:57;;;;;;;;;;;16.50;66.50;;;;;;10169421;28;93521;-71
2023/03/22 02:57:02;;;;;;;;;;;16.50;66.50;;;;;;10167191;28;96536;-72
2023/03/22 03:02:07;;;;;;;;;;;16.50;66.40;;;;;;10169126;28;93635;-72
2023/03/22 03:07:10;;;;;;;;;;;16.50;66.40;;;;;;10169905;28;94388;-72
2023/03/22 03:12:13;;;;;;;;;;;16.50;66.40;;;;;;10152914;28;93551;-72
2023/03/22 03:17:23;;;;;;;;;;;16.40;66.30;;;;;;10169685;28;94063;-72
2023/03/22 03:22:41;;;;;;;;;;;16.40;66.30;;;;;;10168587;28;93873;-73
2023/03/22 03:27:49;;;;;;;;;;;16.40;66.20;;;;;;10151575;28;93403;-72
2023/03/22 03:32:59;;;;;;;;;;;16.40;66.20;;;;;;10169565;28;93799;-73
2023/03/22 03:38:08;;;;;;;;;;;16.40;66.30;;;;;;10169987;28;94322;-73
2023/03/22 03:43:11;;;;;;;;;;;16.40;66.30;;;;;;10169125;28;94910;-72
2023/03/22 03:48:18;;;;;;;;;;;16.40;66.20;;;;;;10166191;28;97185;-73
2023/03/22 03:53:20;;;;;;;;;;;16.40;66.20;;;;;;10150069;28;94150;-72
2023/03/22 03:58:22;;;;;;;;;;;16.40;66.20;;;;;;10167710;28;92518;-73
2023/03/22 04:03:23;;;;;;;;;;;16.40;66.20;;;;;;10167909;28;93796;-72
2023/03/22 04:08:26;;;;;;;;;;;16.40;66.20;;;;;;10151102;28;94601;-72
2023/03/22 04:13:28;;;;;;;;;;;16.40;66.20;;;;;;10167721;28;93549;-71
2023/03/22 04:18:30;;;;;;;;;;;16.40;66.30;;;;;;10166789;28;93481;-72
2023/03/22 04:23:32;;;;;;;;;;;16.30;66.30;;;;;;10168643;28;92513;-72
2023/03/22 04:28:34;;;;;;;;;;;16.40;66.30;;;;;;10167946;28;93503;-73
2023/03/22 04:33:38;;;;;;;;;;;16.40;66.30;;;;;;10167836;28;93315;-72
2023/03/22 04:38:40;;;;;;;;;;;16.30;66.20;;;;;;10165141;28;97430;-71
2023/03/22 04:43:45;;;;;;;;;;;16.40;66.30;;;;;;10150571;28;96051;-71
2023/03/22 06:07:31;;;;;;;;;;;16.70;65.60;;;;;;10091254;28;93117;-66
2023/03/22 06:12:33;;;;;;;;;;;16.80;65.30;;;;;;10091365;28;93186;-66
2023/03/22 06:17:35;;;;;;;;;;;16.90;65.30;;;;;;10092177;28;93280;-66
2023/03/22 06:22:37;;;;;;;;;;;16.90;65.20;;;;;;10093697;28;92078;-66
2023/03/22 06:27:39;;;;;;;;;;;16.80;65.10;;;;;;10093140;28;96462;-67
2023/03/22 06:32:40;;;;;;;;;;;16.80;65.10;;;;;;10092286;28;94549;-67
2023/03/22 06:37:42;;;;;;;;;;;16.80;65.10;;;;;;10089645;28;97899;-66
2023/03/22 06:42:44;;;;;;;;;;;16.80;65.20;;;;;;10092544;28;94162;-66
2023/03/22 06:47:46;;;;;;;;;;;16.70;65.20;;;;;;10079011;28;94173;-64
2023/03/22 06:52:48;;;;;;;;;;;16.70;65.10;;;;;;10129464;28;94626;-65
2023/03/22 06:57:49;;;;;;;;;;;16.70;65.20;;;;;;10129375;28;94751;-65
2023/03/22 07:02:51;;;;;;;;;;;16.70;65.20;;;;;;10114486;28;97133;-64
2023/03/22 07:07:53;;;;;;;;;;;16.70;65.30;;;;;;10097105;28;93513;-65
2023/03/22 07:12:55;;;;;;;;;;;16.60;65.30;;;;;;10130747;28;93841;-66
2023/03/22 07:17:58;;;;;;;;;;;16.60;65.40;;;;;;10130122;28;93962;-65
2023/03/22 07:22:59;;;;;;;;;;;16.60;66.50;;;;;;10128399;28;93999;-66
2023/03/22 07:28:01;;;;;;;;;;;16.60;65.50;;;;;;10128292;28;96174;-65
2023/03/22 07:33:03;;;;;;;;;;;16.60;65.50;;;;;;10130462;28;93569;-66
2023/03/22 07:38:05;;;;;;;;;;;16.60;66.50;;;;;;10112981;28;93461;-65
2023/03/22 07:43:10;;;;;;;;;;;16.60;65.50;;;;;;10113157;28;93998;-65
2023/03/22 07:48:12;;;;;;;;;;;16.60;65.60;;;;;;10127538;28;93393;-66
2023/03/22 07:53:14;;;;;;;;;;;16.50;65.50;;;;;;10128757;28;94689;-65
2023/03/22 07:58:16;;;;;;;;;;;16.50;65.70;;;;;;10112689;28;93486;-66
2023/03/22 08:03:18;;;;;;;;;;;16.50;65.70;;;;;;10129671;28;91858;-66
2023/03/22 08:08:20;;;;;;;;;;;16.50;65.60;;;;;;10127859;28;93534;-66
2023/03/22 08:13:22;;;;;;;;;;;16.50;65.60;;;;;;10127912;28;93525;-66
2023/03/22 08:18:24;;;;;;;;;;;16.50;65.70;;;;;;10124363;28;96309;-65
2023/03/22 08:23:26;;;;;;;;;;;16.50;65.70;;;;;;10126978;28;93738;-65
2023/03/22 08:28:41;;;;;;;;;;;16.50;65.70;;;;;;10128132;28;94418;-66
2023/03/22 08:33:43;;;;;;;;;;;16.50;65.70;;;;;;10129417;28;94521;-64
2023/03/22 08:38:45;;;;;;;;;;;16.50;65.70;;;;;;10129272;28;95310;-66
2023/03/22 08:43:47;;;;;;;;;;;16.50;65.80;;;;;;10129053;28;93470;-66
2023/03/22 08:48:51;;;;;;;;;;;16.50;65.80;;;;;;10128033;28;93474;-66
2023/03/22 08:53:53;;;;;;;;;;;16.50;65.80;;;;;;10128478;28;93705;-66
2023/03/22 08:58:55;;;;;;;;;;;16.50;65.70;;;;;;10127723;28;93277;-66
2023/03/22 09:03:56;;;;;;;;;;;16.50;66.50;;;;;;10127519;28;93388;-65
2023/03/22 09:08:58;;;;;;;;;;;16.60;66.60;;;;;;10124040;28;95931;-66
2023/03/22 09:14:00;;;;;;;;;;;16.60;66.90;;;;;;10123860;28;93380;-66
2023/03/22 09:19:02;;;;;;;;;;;16.60;67.00;;;;;;10117607;28;93599;-64
2023/03/22 09:24:03;;;;;;;;;;;16.70;67.30;;;;;;10125771;28;94816;-65
2023/03/22 09:29:05;;;;;;;;;;;16.90;67.10;;;;;;10127008;28;94665;-65
2023/03/22 09:34:07;;;;;;;;;;;17.10;66.80;;;;;;10126203;28;93269;-64
2023/03/22 09:39:09;;;;;;;;;;;17.30;66.30;;;;;;10129671;28;93806;-64
2023/03/22 09:44:16;;;;;;;;;;;17.40;65.70;;;;;;10133605;28;92973;-64
2023/03/22 09:49:21;;;;;;;;;;;17.60;65.40;;;;;;10108426;28;94516;-64
2023/03/22 09:54:29;;;;;;;;;;;17.80;65.10;;;;;;10091811;28;93582;-64
2023/03/22 09:59:47;;;;;;;;;;;17.90;64.80;;;;;;10088707;28;96607;-64
2023/03/22 10:04:54;;;;;;;;;;;18.00;64.70;;;;;;10091743;28;93074;-65
2023/03/22 10:10:05;;;;;;;;;;;18.00;64.60;;;;;;10093875;28;93294;-64
2023/03/22 10:15:15;;;;;;;;;;;17.90;64.60;;;;;;10094058;28;93830;-65
2023/03/22 10:20:28;;;;;;;;;;;17.90;64.70;;;;;;10075722;28;93298;-64
2023/03/22 10:25:32;;;;;;;;;;;17.90;64.80;;;;;;10092300;28;93407;-65
2023/03/22 10:30:36;;;;;;;;;;;17.90;64.70;;;;;;10091105;28;93517;-64
2023/03/22 10:35:38;;;;;;;;;;;17.80;64.60;;;;;;10091122;28;92869;-65
2023/03/22 10:40:41;;;;;;;;;;;17.80;64.80;;;;;;10091537;28;93834;-65
2023/03/22 10:45:46;;;;;;;;;;;17.70;64.80;;;;;;10091410;28;94228;-64
2023/03/22 10:50:47;;;;;;;;;;;17.70;64.90;;;;;;10087997;28;96848;-65
2023/03/22 10:55:49;;;;;;;;;;;17.70;64.90;;;;;;10091258;28;93197;-65
2023/03/22 11:00:53;;;;;;;;;;;17.70;64.90;;;;;;10090705;28;93392;-65
2023/03/22 11:06:04;;;;;;;;;;;17.70;64.90;;;;;;10091441;28;93411;-64
2023/03/22 11:11:06;;;;;;;;;;;17.60;65.00;;;;;;10090080;28;93362;-65
2023/03/22 11:16:08;;;;;;;;;;;17.70;65.00;;;;;;10090829;28;94475;-64
2023/03/22 11:21:10;;;;;;;;;;;17.80;65.00;;;;;;10090580;28;93838;-64
2023/03/22 11:26:13;;;;;;;;;;;17.80;64.80;;;;;;10090583;28;92793;-65
2023/03/22 11:31:16;;;;;;;;;;;17.80;64.70;;;;;;10086755;28;94176;-65
2023/03/22 11:36:18;;;;;;;;;;;17.90;64.70;;;;;;10107808;28;94508;-65
2023/03/22 11:41:38;;;;;;;;;;;17.90;64.80;;;;;;10126673;28;96832;-65
2023/03/22 11:46:47;;;;;;;;;;;17.90;64.80;;;;;;10127106;28;94466;-66
2023/03/22 11:51:50;;;;;;;;;;;17.90;65.30;;;;;;10129046;28;94402;-65
2023/03/22 11:56:54;;;;;;;;;;;17.90;66.20;;;;;;10126575;28;94600;-65
2023/03/22 12:02:03;;;;;;;;;;;18.00;66.20;;;;;;10127985;28;93553;-66
2023/03/22 12:07:12;;;;;;;;;;;18.10;66.20;;;;;;10124747;28;93565;-66
2023/03/22 12:12:21;;;;;;;;;;;18.20;65.90;;;;;;10129404;28;93975;-63
2023/03/22 12:17:42;;;;;;;;;;;18.30;66.60;;;;;;10128712;28;92950;-66
2023/03/22 12:22:50;;;;;;;;;;;18.30;67.00;;;;;;10128207;28;93530;-66
2023/03/22 12:27:56;;;;;;;;;;;18.30;65.80;;;;;;10127572;28;93761;-66
2023/03/22 12:33:02;;;;;;;;;;;18.20;65.60;;;;;;10124980;28;96990;-66
2023/03/22 12:38:09;;;;;;;;;;;18.20;65.60;;;;;;10126576;28;93514;-66
2023/03/22 12:43:15;;;;;;;;;;;18.10;65.50;;;;;;10126686;28;92575;-66
2023/03/22 12:48:26;;;;;;;;;;;18.10;65.40;;;;;;10107956;28;93493;-65
2023/03/22 12:53:31;;;;;;;;;;;18.10;65.40;;;;;;10128103;28;94066;-65
2023/03/22 12:58:33;;;;;;;;;;;18.00;65.40;;;;;;10127081;28;94748;-65
2023/03/22 13:03:39;;;;;;;;;;;18.00;65.40;;;;;;10127306;28;94278;-65
2023/03/22 13:08:59;;;;;;;;;;;18.00;65.50;;;;;;10126438;28;92705;-66
2023/03/22 13:14:01;;;;;;;;;;;18.00;65.60;;;;;;10128919;28;93489;-66
2023/03/22 13:19:23;;;;;;;;;;;18.00;65.40;;;;;;10133293;28;92575;-66
2023/03/22 13:24:25;;;;;;;;;;;17.90;65.30;;;;;;10129775;28;97885;-66
2023/03/22 13:29:37;;;;;;;;;;;17.90;65.30;;;;;;10133168;28;93291;-65
2023/03/22 13:34:43;;;;;;;;;;;17.90;65.50;;;;;;10129533;28;93785;-66
2023/03/22 13:39:50;;;;;;;;;;;17.90;65.40;;;;;;10130335;28;93756;-66
2023/03/22 13:44:58;;;;;;;;;;;17.90;65.40;;;;;;10129939;28;94803;-66
2023/03/22 13:50:02;;;;;;;;;;;17.90;65.50;;;;;;10130754;28;93479;-67
2023/03/22 13:55:34;;;;;;;;;;;17.80;65.30;;;;;;10131908;28;94831;-66
2023/03/22 14:00:39;;;;;;;;;;;17.80;65.30;;;;;;10133863;28;92677;-69
2023/03/22 14:05:43;;;;;;;;;;;17.90;65.80;;;;;;10132628;28;93943;-63
2023/03/22 14:10:48;;;;;;;;;;;17.90;66.10;;;;;;10131183;28;93561;-66
2023/03/22 14:15:52;;;;;;;;;;;17.90;65.70;;;;;;10128293;28;96770;-66
2023/03/22 14:20:58;;;;;;;;;;;17.90;65.50;;;;;;10131567;28;93670;-66
2023/03/22 14:26:03;;;;;;;;;;;17.90;65.40;;;;;;10130609;28;93716;-66
2023/03/22 14:31:04;;;;;;;;;;;17.90;65.50;;;;;;10131809;28;95074;-66
2023/03/22 14:36:08;;;;;;;;;;;17.90;65.50;;;;;;10132662;28;93297;-66
2023/03/22 14:41:17;;;;;;;;;;;17.90;65.60;;;;;;10132501;28;92963;-66
2023/03/22 14:46:21;;;;;;;;;;;17.90;65.70;;;;;;10131600;28;93084;-66
2023/03/22 14:51:23;;;;;;;;;;;18.00;65.70;;;;;;10122800;28;93971;-66
2023/03/22 14:56:32;;;;;;;;;;;18.00;65.70;;;;;;10125325;28;94596;-65
2023/03/22 15:01:38;;;;;;;;;;;18.00;65.80;;;;;;10112776;28;95139;-66
2023/03/22 15:06:45;;;;;;;;;;;17.90;65.90;;;;;;10125716;28;98700;-66
2023/03/22 15:11:47;;;;;;;;;;;18.00;66.00;;;;;;10129634;28;93317;-65
2023/03/22 15:16:50;;;;;;;;;;;18.00;66.00;;;;;;10129564;28;94455;-66
2023/03/22 15:22:10;;;;;;;;;;;18.00;66.00;;;;;;10112955;28;93380;-67
2023/03/22 15:27:11;;;;;;;;;;;18.00;66.00;;;;;;10128724;28;93519;-67
2023/03/22 15:32:15;;;;;;;;;;;18.00;67.00;;;;;;10130922;28;95637;-67
2023/03/22 15:37:18;;;;;;;;;;;18.00;68.80;;;;;;10126927;28;96115;-67
2023/03/22 15:42:30;;;;;;;;;;;18.10;68.70;;;;;;10130659;28;93549;-67
2023/03/22 15:47:42;;;;;;;;;;;18.20;67.70;;;;;;10126460;28;97634;-63
2023/03/22 15:52:48;;;;;;;;;;;18.20;67.00;;;;;;10124173;28;93289;-66
2023/03/22 15:57:53;;;;;;;;;;;18.20;66.80;;;;;;10126545;28;95924;-66
2023/03/22 16:03:06;;;;;;;;;;;18.20;66.70;;;;;;10110899;28;93601;-67
2023/03/22 16:08:08;;;;;;;;;;;18.10;66.70;;;;;;10094797;28;94803;-67
2023/03/22 16:13:17;;;;;;;;;;;18.10;66.80;;;;;;10128466;28;95015;-67
2023/03/22 16:18:20;;;;;;;;;;;18.10;67.00;;;;;;10127620;28;92463;-67
2023/03/22 16:23:22;;;;;;;;;;;18.00;66.50;;;;;;10111752;28;94764;-67
2023/03/22 16:28:22;;;;;;;;;;;18.00;66.50;;;;;;10110755;28;96310;-69
2023/03/22 16:33:23;;;;;;;;;;;17.90;66.50;;;;;;10129433;28;92586;-67
2023/03/22 16:38:26;;;;;;;;;;;18.00;67.30;;;;;;10122091;28;94615;-67
2023/03/22 16:43:27;;;;;;;;;;;18.00;69.60;;;;;;10126739;28;93141;-62
2023/03/22 16:48:28;;;;;;;;;;;18.10;69.50;;;;;;10123172;28;95528;-66
2023/03/22 16:53:29;;;;;;;;;;;18.10;70.60;;;;;;10124862;28;93925;-66
2023/03/22 16:58:29;;;;;;;;;;;18.20;72.60;;;;;;10117731;28;94071;-64
2023/03/22 17:03:30;;;;;;;;;;;18.40;71.60;;;;;;10108176;28;95820;-65
2023/03/22 17:08:31;;;;;;;;;;;18.50;70.90;;;;;;10125552;28;93677;-66
2023/03/22 17:13:32;;;;;;;;;;;18.50;70.30;;;;;;10125498;28;94214;-66
2023/03/22 17:18:32;;;;;;;;;;;18.50;69.80;;;;;;10109465;28;93155;-67
2023/03/22 17:23:33;;;;;;;;;;;18.50;69.40;;;;;;10126075;28;93241;-69
2023/03/22 17:28:33;;;;;;;;;;;18.50;69.10;;;;;;10109600;28;96206;-67
2023/03/22 17:33:34;;;;;;;;;;;18.50;69.40;;;;;;10125081;28;93514;-73
2023/03/22 17:38:34;;;;;;;;;;;18.50;69.40;;;;;;10124123;28;95676;-66
2023/03/22 17:43:35;;;;;;;;;;;18.50;69.50;;;;;;10108816;28;93126;-66
2023/03/22 17:48:36;;;;;;;;;;;18.40;69.70;;;;;;10108646;28;93675;-69
2023/03/22 17:53:36;;;;;;;;;;;18.40;69.50;;;;;;10125325;28;93278;-70
2023/03/22 17:58:37;;;;;;;;;;;18.40;69.50;;;;;;10127942;28;93164;-71
2023/03/22 18:03:37;;;;;;;;;;;18.30;69.20;;;;;;10113386;28;93289;-70
2023/03/22 18:08:38;;;;;;;;;;;18.30;69.40;;;;;;10131019;28;93929;-70
2023/03/22 18:13:40;;;;;;;;;;;18.20;69.30;;;;;;10099535;28;94412;-70
2023/03/22 18:18:40;;;;;;;;;;;18.10;69.60;;;;;;10126716;28;93542;-70
2023/03/22 18:23:41;;;;;;;;;;;18.10;69.70;;;;;;10113371;28;93595;-71
2023/03/22 18:28:42;;;;;;;;;;;18.10;69.90;;;;;;10128692;28;95751;-71
2023/03/22 18:33:44;;;;;;;;;;;18.10;69.80;;;;;;10113060;28;93522;-71
2023/03/22 18:38:45;;;;;;;;;;;18.20;69.90;;;;;;10098190;28;93555;-70
2023/03/22 18:43:46;;;;;;;;;;;18.10;69.90;;;;;;10113426;28;94422;-71
2023/03/22 18:48:48;;;;;;;;;;;18.10;70.00;;;;;;10129295;28;94195;-71
2023/03/22 18:53:49;;;;;;;;;;;18.00;70.10;;;;;;10130141;28;94467;-70
2023/03/22 18:58:49;;;;;;;;;;;18.00;70.00;;;;;;10112007;28;93558;-71
2023/03/22 19:03:51;;;;;;;;;;;18.00;69.90;;;;;;10111422;28;95582;-69
2023/03/22 19:08:53;;;;;;;;;;;18.00;70.20;;;;;;10128591;28;93464;-70
2023/03/22 19:13:55;;;;;;;;;;;18.00;70.50;;;;;;10096063;28;93402;-71
2023/03/22 19:18:56;;;;;;;;;;;18.00;70.40;;;;;;10126652;28;96616;-71
2023/03/22 19:23:57;;;;;;;;;;;18.00;70.50;;;;;;10127521;28;93579;-69
2023/03/22 19:28:58;;;;;;;;;;;18.00;70.30;;;;;;10129201;28;93997;-69
2023/03/22 19:34:01;;;;;;;;;;;18.00;70.40;;;;;;10112405;28;95806;-71
2023/03/22 19:39:02;;;;;;;;;;;18.00;70.30;;;;;;10129222;28;94451;-71
2023/03/22 19:44:05;;;;;;;;;;;18.00;70.20;;;;;;10129137;28;114397;-71
2023/03/22 19:49:05;;;;;;;;;;;18.00;70.30;;;;;;10111822;28;94247;-70
2023/03/22 19:54:06;;;;;;;;;;;18.00;70.40;;;;;;10143476;28;93586;-70
2023/03/22 19:59:07;;;;;;;;;;;18.00;70.20;;;;;;10123622;28;94142;-69
2023/03/22 20:04:08;;;;;;;;;;;17.90;70.00;;;;;;10111305;28;95646;-70
2023/03/22 20:09:08;;;;;;;;;;;18.00;70.00;;;;;;10107778;28;96951;-70
2023/03/22 20:14:09;;;;;;;;;;;18.00;70.00;;;;;;10126049;28;95077;-70
2023/03/22 20:19:09;;;;;;;;;;;18.00;69.90;;;;;;10112537;28;94616;-69
2023/03/22 20:24:10;;;;;;;;;;;18.00;70.00;;;;;;10127037;28;94682;-68
2023/03/22 20:29:11;;;;;;;;;;;18.00;70.10;;;;;;10127447;28;92971;-69
2023/03/22 20:34:12;;;;;;;;;;;18.00;70.10;;;;;;10129224;28;93683;-69
2023/03/22 20:39:12;;;;;;;;;;;18.00;70.00;;;;;;10128614;28;93242;-69
2023/03/22 20:44:13;;;;;;;;;;;18.00;70.10;;;;;;10096634;28;92924;-69
2023/03/22 20:49:14;;;;;;;;;;;18.00;70.00;;;;;;10094418;28;94855;-68
2023/03/22 20:54:15;;;;;;;;;;;18.00;70.00;;;;;;10094505;28;93288;-68
2023/03/22 20:59:18;;;;;;;;;;;17.90;70.00;;;;;;10107714;28;97732;-69
2023/03/22 21:04:20;;;;;;;;;;;17.90;69.90;;;;;;10126640;28;94460;-69
2023/03/22 21:09:20;;;;;;;;;;;17.90;69.70;;;;;;10127245;28;95964;-69
2023/03/22 21:14:22;;;;;;;;;;;17.90;69.70;;;;;;10117457;28;94655;-70
2023/03/22 21:19:23;;;;;;;;;;;17.80;69.60;;;;;;10110910;28;94208;-68
2023/03/22 21:24:24;;;;;;;;;;;17.90;69.60;;;;;;10126282;28;94762;-69
2023/03/22 21:29:25;;;;;;;;;;;17.80;69.50;;;;;;10125834;28;93462;-69
2023/03/22 21:34:25;;;;;;;;;;;17.80;69.50;;;;;;10127445;28;92623;-69
2023/03/22 21:39:28;;;;;;;;;;;17.70;69.50;;;;;;10132387;28;93396;-69
2023/03/22 21:44:29;;;;;;;;;;;17.70;69.40;;;;;;10131007;28;93435;-69
2023/03/22 21:49:30;;;;;;;;;;;17.70;69.40;;;;;;10097388;28;97568;-69
2023/03/22 21:54:31;;;;;;;;;;;17.60;69.40;;;;;;10132534;28;94180;-69
2023/03/22 21:59:32;;;;;;;;;;;17.60;69.40;;;;;;10114743;28;93486;-69
2023/03/22 22:04:33;;;;;;;;;;;17.50;69.30;;;;;;10132072;28;94193;-69
2023/03/22 22:09:33;;;;;;;;;;;17.50;69.30;;;;;;10130494;28;96418;-69
2023/03/22 22:14:34;;;;;;;;;;;17.50;70.00;;;;;;10131530;28;93369;-69
2023/03/22 22:19:35;;;;;;;;;;;17.50;69.30;;;;;;10131768;28;93294;-69
2023/03/22 22:24:35;;;;;;;;;;;17.40;69.20;;;;;;10114211;28;94369;-69
2023/03/22 22:29:36;;;;;;;;;;;17.40;69.30;;;;;;10131730;28;96338;-69
2023/03/22 22:34:37;;;;;;;;;;;17.40;69.20;;;;;;10130703;28;94232;-69
2023/03/22 22:39:38;;;;;;;;;;;17.40;69.20;;;;;;10110755;28;96979;-70
2023/03/22 22:44:39;;;;;;;;;;;17.40;69.20;;;;;;10096566;28;96538;-69
2023/03/22 22:49:40;;;;;;;;;;;17.30;69.20;;;;;;10130738;28;94438;-69
2023/03/22 22:54:40;;;;;;;;;;;17.30;69.20;;;;;;10128235;28;94787;-69
2023/03/22 22:59:41;;;;;;;;;;;17.30;69.30;;;;;;10112829;28;94142;-69
2023/03/22 23:04:41;;;;;;;;;;;17.30;69.30;;;;;;10129248;28;94700;-69
2023/03/22 23:09:46;;;;;;;;;;;17.30;69.20;;;;;;10129612;28;94950;-70
2023/03/22 23:14:47;;;;;;;;;;;17.20;69.20;;;;;;10130362;28;92567;-69
2023/03/22 23:19:56;;;;;;;;;;;17.20;69.20;;;;;;10128384;28;94273;-70
2023/03/22 23:24:59;;;;;;;;;;;17.20;69.20;;;;;;10130645;28;93127;-69
2023/03/22 23:30:00;;;;;;;;;;;17.20;69.20;;;;;;10123190;28;97697;-70
2023/03/22 23:35:02;;;;;;;;;;;17.20;69.10;;;;;;10128932;28;93621;-70
2023/03/22 23:40:10;;;;;;;;;;;17.20;69.10;;;;;;10128956;28;94167;-70
2023/03/22 23:45:11;;;;;;;;;;;17.20;69.00;;;;;;10128194;28;93581;-69
2023/03/22 23:50:12;;;;;;;;;;;17.20;69.00;;;;;;10124598;28;95811;-69
2023/03/22 23:55:13;;;;;;;;;;;17.20;69.00;;;;;;10126998;28;94292;-69
